Buguruslan, Russia
Current Conditions -  °F | °C
As of 10:00 PM on Sunday 23 Nov 2014 (Local Time) from UWWW Reporting Station
Overcast Overcast  
Wind Chill: -3°   Ceiling: 10000
Heat Index: 14°   Visibility: 6mi
Dew Point:   Wind: 18mph
Humidity: 67%   Direction: 20°NNE
Pressure: 30.45"   Gusts: NA
Location:  53.65°N, 52.43°E
Report Text: UWWW 231700Z 02008MPS 9999 SCT026 OVC100 M10/M15 Q1031 0541015515//99// NOSIG RMK QFE760/1014
Loading
Personal Weather Stations






























Interactive Weather Map New forecast layout! Learn more

10-Day Weather Forecast

Advertisements
Track Severe Weather on mobile